Big Bear Station Historical Data
Daily Summary for March 23, 2017 Units:  English    Metric   Both
« Previous Day
Next Day »
Daily Weekly Monthly Yearly Custom
  High: Low: Average:
Temperature: 45.5 °F 27.5 °F 34.2 °F
Dew Point: 36.3 °F 22.8 °F 27.8 °F
Humidity: 93 % 43 % 79 %
Wind Speed: 6.3 mph 0.0 mph 2.8 mph
Wind Gust: -999.0 mph - -
Wind:- - WSW
Pressure: 30.25 in 29.99 in -
Precipitation: 0.53 in    
Historical Graphs
 
 
Tabular Data for March 23, 2017
Time Temperature Dew Point Pressure Wind Wind Speed Wind Gust Humidity Rainfall Rate (Hourly)
00:12 31.3 °F 28.7 °F 30.00 in SSE 3.7 mph -999.0 mph 90 % 0 in
00:28 31.1 °F 28.5 °F 30.00 in NNE 5.3 mph -999.0 mph 90 % 0 in
00:43 31.1 °F 29.3 °F 30.00 in NW 4.7 mph -999.0 mph 93 % 0 in
00:58 31.1 °F 28.8 °F 30.00 in NNW 4.2 mph -999.0 mph 91 % 0 in
01:14 31.1 °F 28.5 °F 30.00 in WNW 3.7 mph -999.0 mph 90 % 0 in
01:29 30.9 °F 28.3 °F 30.00 in SW 1.7 mph -999.0 mph 90 % 0 in
01:44 30.6 °F 27.5 °F 30.00 in NNW 1.7 mph -999.0 mph 88 % 0 in
01:59 30.6 °F 28.3 °F 30.00 in North 1.7 mph -999.0 mph 91 % 0 in
02:15 30.7 °F 28.1 °F 29.99 in ESE 5.3 mph -999.0 mph 90 % 0 in
02:30 30.7 °F 27.8 °F 29.99 in North 2.7 mph -999.0 mph 89 % 0 in
02:45 30.7 °F 27.8 °F 29.99 in NNE 2.2 mph -999.0 mph 89 % 0 in
03:00 30.6 °F 28.6 °F 29.99 in NNW 4.7 mph -999.0 mph 92 % 0 in
03:16 30.6 °F 28.3 °F 29.99 in NNW 4.7 mph -999.0 mph 91 % 0 in
03:31 30.7 °F 28.4 °F 29.99 in NNW 6.3 mph -999.0 mph 91 % 0 in
03:46 30.6 °F 28.3 °F 29.99 in West 3.7 mph -999.0 mph 91 % 0 in
04:02 30.4 °F 27.5 °F 29.99 in NW 5.3 mph -999.0 mph 89 % 0 in
04:17 29.8 °F 27.0 °F 29.99 in NNW 3.2 mph -999.0 mph 89 % 0 in
04:33 29.7 °F 26.0 °F 29.99 in NW 2.7 mph -999.0 mph 86 % 0 in
04:48 29.7 °F 26.0 °F 29.99 in West 1.7 mph -999.0 mph 86 % 0 in
05:03 29.7 °F 26.6 °F 29.99 in NNW 2.2 mph -999.0 mph 88 % 0 in
05:18 29.5 °F 26.4 °F 30.00 in Calm   -999.0 mph 88 % 0 in
05:34 28.9 °F 25.5 °F 30.01 in NW 2.2 mph -999.0 mph 87 % 0 in
05:49 28.2 °F 26.2 °F 30.01 in North 4.7 mph -999.0 mph 92 % 0 in
06:05 28.0 °F 26.0 °F 30.01 in Calm   -999.0 mph 92 % 0 in
06:20 28.0 °F 26.2 °F 30.02 in ESE 3.2 mph -999.0 mph 93 % 0 in
06:35 28.2 °F 25.9 °F 30.02 in East 1.7 mph -999.0 mph 91 % 0 in
06:50 28.2 °F 25.9 °F 30.03 in SSW 5.8 mph -999.0 mph 91 % 0 in
07:06 28.2 °F 25.4 °F 30.03 in WNW 4.7 mph -999.0 mph 89 % 0 in
07:21 28.2 °F 26.2 °F 30.02 in NNW 5.3 mph -999.0 mph 92 % 0 in
07:36 27.9 °F 24.0 °F 30.04 in NE 3.7 mph -999.0 mph 85 % 0 in
07:51 28.0 °F 24.6 °F 30.04 in West 1.1 mph -999.0 mph 87 % 0 in
08:06 28.0 °F 24.4 °F 30.04 in WNW 3.2 mph -999.0 mph 86 % 0 in
08:22 28.4 °F 24.7 °F 30.05 in NNW 3.7 mph -999.0 mph 86 % 0 in
08:37 28.2 °F 24.3 °F 30.05 in SSE 1.7 mph -999.0 mph 85 % 0 in
08:53 28.6 °F 24.9 °F 30.06 in NNE 1.7 mph -999.0 mph 86 % 0 in
09:08 29.1 °F 24.6 °F 30.07 in ENE 1.1 mph -999.0 mph 83 % 0 in
09:23 30.4 °F 24.7 °F 30.07 in NNW 1.7 mph -999.0 mph 79 % 0 in
09:39 31.1 °F 26.2 °F 30.08 in ENE 1.7 mph -999.0 mph 82 % 0 in
09:54 31.6 °F 27.0 °F 30.08 in NNW 2.2 mph -999.0 mph 83 % 0 in
10:09 32.0 °F 26.2 °F 30.09 in Calm   -999.0 mph 79 % 0 in
10:24 33.3 °F 27.2 °F 30.09 in North 4.2 mph -999.0 mph 78 % 0 in
10:39 34.9 °F 27.8 °F 30.10 in NNW 2.7 mph -999.0 mph 75 % 0 in
10:55 36.3 °F 28.8 °F 30.11 in NNW 3.2 mph -999.0 mph 74 % 0 in
11:10 40.1 °F 28.5 °F 30.11 in NW 4.7 mph -999.0 mph 63 % 0 in
11:25 38.7 °F 27.6 °F 30.12 in NE 2.2 mph -999.0 mph 64 % 0 in
11:40 41.0 °F 29.4 °F 30.12 in NNW 4.7 mph -999.0 mph 63 % 0 in
11:56 42.3 °F 29.4 °F 30.13 in NW 4.2 mph -999.0 mph 60 % 0 in
12:11 42.6 °F 29.3 °F 30.13 in NNE 3.2 mph -999.0 mph 59 % 0 in
12:26 43.3 °F 27.8 °F 30.13 in NNW 4.2 mph -999.0 mph 54 % 0 in
12:42 43.2 °F 26.3 °F 30.13 in North 3.2 mph -999.0 mph 51 % 0 in
12:57 43.9 °F 28.3 °F 30.14 in NNW 3.2 mph -999.0 mph 54 % 0 in
13:12 42.6 °F 26.2 °F 30.14 in ENE 2.7 mph -999.0 mph 52 % 0 in
13:28 43.3 °F 29.1 °F 30.14 in NW 4.7 mph -999.0 mph 57 % 0 in
13:43 43.3 °F 26.8 °F 30.14 in WNW 1.7 mph -999.0 mph 52 % 0 in
13:59 43.7 °F 26.7 °F 30.15 in NW 4.2 mph -999.0 mph 51 % 0 in
14:14 43.2 °F 24.3 °F 30.15 in NNW 2.7 mph -999.0 mph 47 % 0 in
14:30 44.6 °F 29.0 °F 30.15 in NW 5.3 mph -999.0 mph 54 % 0 in
14:45 43.9 °F 22.8 °F 30.14 in NE 3.7 mph -999.0 mph 43 % 0 in
15:00 44.1 °F 24.6 °F 30.14 in NW 4.7 mph -999.0 mph 46 % 0 in
15:15 44.1 °F 24.1 °F 30.14 in WNW 1.7 mph -999.0 mph 45 % 0 in
15:31 44.6 °F 25.6 °F 30.15 in WNW 3.7 mph -999.0 mph 47 % 0 in
15:46 45.5 °F 28.4 °F 30.14 in WNW 5.3 mph -999.0 mph 51 % 0 in
16:01 44.8 °F 29.6 °F 30.14 in West 1.7 mph -999.0 mph 55 % 0 in
16:16 45.0 °F 29.8 °F 30.14 in SSW 3.2 mph -999.0 mph 55 % 0 in
16:48 43.5 °F 34.4 °F 30.14 in NW 3.7 mph -999.0 mph 70 % 0 in
17:03 45.1 °F 36.3 °F 30.15 in North 4.2 mph -999.0 mph 71 % 0 in
17:18 44.2 °F 36.1 °F 30.15 in NNW 3.7 mph -999.0 mph 73 % 0 in
17:33 43.7 °F 35.6 °F 30.16 in NW 3.7 mph -999.0 mph 73 % 0 in
17:48 40.1 °F 34.1 °F 30.16 in NNW 2.7 mph -999.0 mph 79 % 0 in
18:04 39.2 °F 33.2 °F 30.17 in NW 3.7 mph -999.0 mph 79 % 0 in
18:19 37.9 °F 32.3 °F 30.17 in WSW 1.7 mph -999.0 mph 80 % 0 in
18:49 36.1 °F 31.4 °F 30.17 in SSE 1.7 mph -999.0 mph 83 % 0 in
19:04 35.2 °F 30.6 °F 30.17 in SW 1.7 mph -999.0 mph 83 % 0 in
19:35 34.5 °F 30.2 °F 30.18 in Calm   -999.0 mph 84 % 0 in
19:50 33.8 °F 30.3 °F 30.19 in Calm   -999.0 mph 87 % 0 in
20:05 32.9 °F 29.7 °F 30.19 in Calm   -999.0 mph 88 % 0 in
20:20 32.7 °F 30.6 °F 30.20 in Calm   -999.0 mph 92 % 0 in
20:36 32.2 °F 30.1 °F 30.20 in SSE 1.7 mph -999.0 mph 92 % 0 in
20:51 31.5 °F 29.4 °F 30.21 in SSE 1.7 mph -999.0 mph 92 % 0 in
21:06 30.9 °F 28.9 °F 30.22 in Calm   -999.0 mph 92 % 0 in
21:22 30.6 °F 28.6 °F 30.22 in South 2.7 mph -999.0 mph 92 % 0 in
21:37 29.8 °F 27.0 °F 30.22 in South 1.1 mph -999.0 mph 89 % 0 in
21:52 29.7 °F 27.1 °F 30.23 in South 2.2 mph -999.0 mph 90 % 0 in
22:07 29.7 °F 27.9 °F 30.23 in South 1.7 mph -999.0 mph 93 % 0 in
22:23 28.9 °F 26.9 °F 30.23 in SSE 1.7 mph -999.0 mph 92 % 0 in
22:38 28.6 °F 25.2 °F 30.24 in SSW 2.2 mph -999.0 mph 87 % 0 in
22:53 28.6 °F 26.0 °F 30.24 in South 1.7 mph -999.0 mph 90 % 0 in
23:08 28.4 °F 26.6 °F 30.24 in South 1.7 mph -999.0 mph 93 % 0 in
23:24 28.2 °F 26.4 °F 30.24 in Calm   -999.0 mph 93 % 0 in
23:39 28.0 °F 25.7 °F 30.24 in Calm   -999.0 mph 91 % 0 in
23:54 27.5 °F 24.1 °F 30.25 in Calm   -999.0 mph 87 % 0 in
Big Bear CA Weather
Compliments of Weather Underground - 1.5 mb